createdAt,value
2017-07-23T00:01:25.152Z,22.28
2017-07-23T00:03:52.576Z,22.23
2017-07-23T00:06:20.027Z,22.09
2017-07-23T00:08:47.487Z,22.02
2017-07-23T00:11:14.923Z,21.98
2017-07-23T00:13:42.385Z,21.87
2017-07-23T00:16:09.791Z,22.03
2017-07-23T00:18:37.243Z,22.06
2017-07-23T00:21:04.680Z,21.90
2017-07-23T00:23:32.123Z,21.75
2017-07-23T00:25:59.563Z,21.88
2017-07-23T00:28:26.971Z,21.90
2017-07-23T00:30:54.481Z,21.92
2017-07-23T00:33:21.895Z,21.88
2017-07-23T00:35:49.381Z,21.89
2017-07-23T00:38:16.787Z,21.80
2017-07-23T00:40:44.262Z,21.73
2017-07-23T00:43:11.688Z,21.72
2017-07-23T00:45:39.131Z,21.58
2017-07-23T00:48:06.571Z,21.46
2017-07-23T00:50:33.974Z,21.27
2017-07-23T00:53:01.429Z,21.17
2017-07-23T00:55:28.859Z,21.18
2017-07-23T00:57:56.267Z,21.23
2017-07-23T01:00:24.170Z,21.11
2017-07-23T01:02:51.582Z,20.99
2017-07-23T01:05:18.995Z,21.00
2017-07-23T01:07:46.424Z,20.86
2017-07-23T01:10:13.835Z,20.79
2017-07-23T01:12:41.281Z,20.81
2017-07-23T01:15:08.703Z,20.80
2017-07-23T01:17:36.124Z,20.84
2017-07-23T01:20:04.282Z,20.77
2017-07-23T01:22:31.690Z,20.59
2017-07-23T01:24:59.137Z,20.55
2017-07-23T01:27:26.560Z,20.59
2017-07-23T01:29:53.962Z,20.74
2017-07-23T01:32:21.426Z,20.74
2017-07-23T01:34:48.872Z,20.85
2017-07-23T01:37:16.280Z,20.86
2017-07-23T01:39:43.715Z,20.73
2017-07-23T01:42:11.167Z,20.59
2017-07-23T01:44:38.567Z,20.59
2017-07-23T01:47:05.978Z,20.67
2017-07-23T01:49:33.412Z,20.78
2017-07-23T01:52:00.832Z,20.87
2017-07-23T01:54:28.268Z,20.87
2017-07-23T01:56:55.697Z,20.92
2017-07-23T01:59:23.116Z,20.82
2017-07-23T02:01:50.545Z,20.66
2017-07-23T02:04:17.961Z,20.70
2017-07-23T02:06:45.452Z,20.61
2017-07-23T02:09:12.867Z,20.51
2017-07-23T02:11:40.300Z,20.57
2017-07-23T02:14:07.728Z,20.51
2017-07-23T02:16:35.131Z,20.48
2017-07-23T02:19:02.568Z,20.31
2017-07-23T02:21:29.971Z,20.14
2017-07-23T02:23:58.081Z,20.07
2017-07-23T02:26:25.481Z,19.90
2017-07-23T02:28:52.909Z,19.65
2017-07-23T02:31:20.307Z,19.47
2017-07-23T02:33:47.795Z,19.42
2017-07-23T02:36:15.239Z,19.29
2017-07-23T02:38:42.643Z,19.35
2017-07-23T02:41:10.080Z,19.41
2017-07-23T02:43:37.526Z,19.41
2017-07-23T02:46:05.016Z,19.29
2017-07-23T02:48:32.420Z,19.19
2017-07-23T02:50:59.847Z,19.18
2017-07-23T02:53:27.673Z,19.15
2017-07-23T02:55:55.088Z,19.22
2017-07-23T02:58:22.497Z,19.20
2017-07-23T03:00:50.001Z,19.32
2017-07-23T03:03:17.439Z,19.35
2017-07-23T03:05:45.063Z,19.38
2017-07-23T03:08:12.498Z,19.42
2017-07-23T03:10:39.938Z,19.37
2017-07-23T03:13:07.358Z,19.36
2017-07-23T03:15:34.797Z,19.43
2017-07-23T03:18:02.212Z,19.38
2017-07-23T03:20:29.666Z,19.58
2017-07-23T03:22:57.075Z,19.67
2017-07-23T03:25:24.507Z,19.56
2017-07-23T03:27:51.962Z,19.68
2017-07-23T03:30:19.380Z,19.84
2017-07-23T03:32:46.792Z,19.96
2017-07-23T03:35:14.231Z,19.86
2017-07-23T03:37:41.644Z,19.94
2017-07-23T03:40:09.088Z,19.98
2017-07-23T03:42:36.511Z,20.03
2017-07-23T03:45:04.806Z,19.99
2017-07-23T03:47:32.215Z,19.95
2017-07-23T03:49:59.695Z,19.87
2017-07-23T03:52:27.255Z,19.98
2017-07-23T03:54:54.668Z,20.08
2017-07-23T03:57:22.095Z,20.13
2017-07-23T03:59:49.492Z,20.14
2017-07-23T04:02:16.934Z,20.29
2017-07-23T04:04:44.419Z,20.32
2017-07-23T04:07:11.839Z,20.40
2017-07-23T04:09:39.353Z,20.31
2017-07-23T04:12:06.824Z,20.06
2017-07-23T04:14:34.410Z,20.07
2017-07-23T04:17:01.815Z,19.93
2017-07-23T04:19:29.255Z,19.91
2017-07-23T04:21:56.749Z,19.99
2017-07-23T04:24:24.319Z,19.99
2017-07-23T04:26:51.732Z,19.67
2017-07-23T04:29:19.163Z,19.82
2017-07-23T04:31:46.599Z,19.91
2017-07-23T04:34:14.025Z,19.68
2017-07-23T04:36:41.448Z,19.64
2017-07-23T04:39:09.085Z,19.58
2017-07-23T04:41:36.511Z,19.46
2017-07-23T04:44:03.965Z,19.46
2017-07-23T04:46:31.386Z,19.39
2017-07-23T04:48:58.856Z,19.10
2017-07-23T04:51:26.281Z,19.22
2017-07-23T04:53:53.692Z,19.23
2017-07-23T04:56:21.207Z,19.42
2017-07-23T04:58:48.707Z,19.29
2017-07-23T05:01:16.297Z,19.32
2017-07-23T05:03:43.793Z,19.45
2017-07-23T05:06:11.522Z,19.48
2017-07-23T05:08:38.939Z,19.58
2017-07-23T05:11:06.348Z,19.71
2017-07-23T05:13:33.809Z,19.82
2017-07-23T05:16:01.235Z,19.77
2017-07-23T05:18:28.669Z,19.95
2017-07-23T05:20:56.073Z,20.21
2017-07-23T05:23:23.963Z,20.32
2017-07-23T05:25:51.367Z,19.91
2017-07-23T05:28:18.775Z,20.01
2017-07-23T05:30:46.265Z,20.12
2017-07-23T05:33:13.691Z,20.18
2017-07-23T05:35:41.103Z,20.21
2017-07-23T05:38:08.520Z,20.30
2017-07-23T05:40:36.056Z,20.35
2017-07-23T05:43:03.480Z,20.43
2017-07-23T05:45:30.910Z,20.21
2017-07-23T05:47:58.457Z,20.34
2017-07-23T05:50:25.916Z,20.38
2017-07-23T05:52:53.335Z,20.26
2017-07-23T05:55:20.755Z,20.07
2017-07-23T05:57:48.180Z,20.00
2017-07-23T06:00:15.592Z,19.95
2017-07-23T06:02:43.032Z,19.88
2017-07-23T06:05:10.447Z,19.84
2017-07-23T06:07:38.352Z,19.90
2017-07-23T06:10:05.839Z,19.90
2017-07-23T06:12:33.237Z,19.91
2017-07-23T06:15:00.676Z,20.09
2017-07-23T06:17:28.083Z,20.00
2017-07-23T06:19:55.511Z,20.10
2017-07-23T06:22:22.936Z,20.25
2017-07-23T06:24:50.395Z,20.40
2017-07-23T06:27:17.885Z,20.34
2017-07-23T06:29:45.793Z,20.53
2017-07-23T06:32:13.182Z,21.03
2017-07-23T06:34:40.671Z,21.35
2017-07-23T06:37:08.104Z,21.19
2017-07-23T06:39:35.628Z,20.85
2017-07-23T06:42:03.090Z,20.92
2017-07-23T06:44:30.520Z,20.61
2017-07-23T06:46:58.046Z,20.53
2017-07-23T06:49:25.466Z,20.74
2017-07-23T06:51:52.901Z,20.97
2017-07-23T06:54:20.454Z,21.27
2017-07-23T06:56:47.847Z,21.35
2017-07-23T06:59:15.295Z,21.20
2017-07-23T07:01:42.706Z,21.24
2017-07-23T07:04:10.156Z,21.64
2017-07-23T07:06:37.594Z,21.38
2017-07-23T07:09:05.019Z,21.22
2017-07-23T07:11:32.439Z,21.23
2017-07-23T07:13:59.877Z,21.26
2017-07-23T07:16:27.301Z,21.03
2017-07-23T07:18:55.127Z,21.01
2017-07-23T07:21:22.543Z,20.96
2017-07-23T07:23:50.000Z,21.08
2017-07-23T07:26:17.457Z,20.91
2017-07-23T07:28:44.875Z,20.86
2017-07-23T07:31:12.388Z,20.79
2017-07-23T07:33:40.548Z,20.83
2017-07-23T07:36:08.051Z,20.58
2017-07-23T07:38:35.541Z,20.47
2017-07-23T07:41:03.040Z,20.34
2017-07-23T07:43:30.454Z,20.40
2017-07-23T07:45:57.851Z,20.52
2017-07-23T07:48:25.316Z,20.58
2017-07-23T07:50:52.726Z,20.74
2017-07-23T07:53:20.166Z,21.03
2017-07-23T07:55:47.572Z,20.96
2017-07-23T07:58:15.027Z,20.75
2017-07-23T08:00:42.664Z,20.48
2017-07-23T08:03:10.207Z,20.49
2017-07-23T08:05:37.664Z,20.63
2017-07-23T08:08:05.112Z,20.75
2017-07-23T08:10:33.068Z,20.87
2017-07-23T08:13:00.599Z,20.72
2017-07-23T08:15:28.147Z,20.60
2017-07-23T08:17:55.556Z,20.78
2017-07-23T08:20:23.006Z,20.72
2017-07-23T08:22:50.419Z,20.82
2017-07-23T08:25:19.500Z,21.32
2017-07-23T08:27:47.031Z,21.78
2017-07-23T08:30:14.433Z,21.89
2017-07-23T08:32:41.868Z,21.76
2017-07-23T08:35:09.336Z,21.75
2017-07-23T08:37:36.788Z,21.65
2017-07-23T08:40:04.251Z,21.68
2017-07-23T08:42:31.728Z,21.61
2017-07-23T08:44:59.182Z,21.85
2017-07-23T08:47:26.669Z,21.88
2017-07-23T08:49:54.099Z,22.16
2017-07-23T08:52:21.551Z,22.32
2017-07-23T08:54:49.066Z,21.95
2017-07-23T08:57:16.572Z,21.97
2017-07-23T08:59:44.171Z,21.87
2017-07-23T09:02:12.115Z,21.53
2017-07-23T09:04:39.558Z,21.32
2017-07-23T09:07:06.979Z,21.49
2017-07-23T09:09:34.428Z,21.46
2017-07-23T09:12:01.900Z,21.51
2017-07-23T09:14:29.324Z,21.46
2017-07-23T09:16:56.804Z,21.45
2017-07-23T09:19:24.200Z,21.33
2017-07-23T09:21:51.626Z,21.58
2017-07-23T09:24:19.035Z,21.52
2017-07-23T09:26:46.497Z,21.23
2017-07-23T09:29:13.962Z,20.92
2017-07-23T09:31:42.281Z,20.99
2017-07-23T09:34:09.795Z,20.99
2017-07-23T09:36:37.216Z,20.88
2017-07-23T09:39:04.690Z,20.92
2017-07-23T09:41:32.138Z,21.07
2017-07-23T09:43:59.666Z,20.94
2017-07-23T09:46:27.102Z,21.11
2017-07-23T09:48:54.573Z,21.11
2017-07-23T09:51:21.987Z,21.16
2017-07-23T09:53:49.489Z,21.10
2017-07-23T09:56:17.009Z,21.29
2017-07-23T09:58:44.536Z,21.28
2017-07-23T10:01:12.054Z,21.48
2017-07-23T10:03:39.476Z,21.56
2017-07-23T10:06:07.099Z,21.63
2017-07-23T10:08:34.559Z,21.58
2017-07-23T10:11:02.035Z,21.34
2017-07-23T10:13:29.605Z,21.13
2017-07-23T10:15:57.103Z,21.31
2017-07-23T10:18:24.542Z,21.43
2017-07-23T10:20:51.957Z,21.58
2017-07-23T10:23:19.453Z,21.82
2017-07-23T10:25:46.898Z,21.92
2017-07-23T10:28:14.364Z,21.98
2017-07-23T10:30:42.161Z,21.99
2017-07-23T10:33:09.591Z,21.88
2017-07-23T10:35:37.042Z,21.75
2017-07-23T10:38:04.511Z,21.80
2017-07-23T10:40:31.988Z,21.92
2017-07-23T10:42:59.484Z,22.06
2017-07-23T10:45:26.903Z,22.24
2017-07-23T10:47:54.354Z,22.49
2017-07-23T10:50:21.804Z,22.44
2017-07-23T10:52:49.243Z,22.20
2017-07-23T10:55:16.717Z,21.89
2017-07-23T10:57:44.133Z,21.78
2017-07-23T11:00:11.554Z,22.06
2017-07-23T11:02:39.000Z,22.05
2017-07-23T11:05:06.425Z,22.06
2017-07-23T11:07:34.023Z,22.06
2017-07-23T11:10:01.619Z,22.04
2017-07-23T11:12:29.229Z,21.98
2017-07-23T11:14:56.763Z,22.15
2017-07-23T11:17:24.215Z,22.02
2017-07-23T11:19:51.641Z,22.07
2017-07-23T11:22:19.078Z,22.60
2017-07-23T11:24:46.573Z,22.67
2017-07-23T11:27:14.027Z,22.68
2017-07-23T11:29:41.563Z,22.99
2017-07-23T11:32:09.144Z,23.24
2017-07-23T11:34:36.542Z,23.47
2017-07-23T11:37:04.201Z,23.27
2017-07-23T11:39:31.636Z,23.19
2017-07-23T11:41:59.113Z,23.42
2017-07-23T11:44:26.771Z,23.14
2017-07-23T11:46:54.199Z,23.23
2017-07-23T11:49:21.656Z,23.24
2017-07-23T11:51:49.079Z,23.36
2017-07-23T11:54:16.551Z,23.45
2017-07-23T11:56:44.024Z,23.51
2017-07-23T11:59:11.451Z,23.17
2017-07-23T12:01:38.868Z,23.17
2017-07-23T12:04:06.320Z,23.35
2017-07-23T12:06:33.741Z,23.32
2017-07-23T12:09:01.180Z,23.58
2017-07-23T12:11:28.591Z,23.85
2017-07-23T12:13:56.045Z,23.80
2017-07-23T12:16:23.604Z,23.51
2017-07-23T12:18:51.057Z,23.34
2017-07-23T12:21:18.643Z,23.44
2017-07-23T12:23:46.115Z,23.63
2017-07-23T12:26:13.731Z,23.66
2017-07-23T12:28:41.350Z,23.67
2017-07-23T12:31:08.775Z,24.32
2017-07-23T12:33:36.289Z,24.67
2017-07-23T12:36:03.978Z,24.75
2017-07-23T12:38:31.408Z,25.11
2017-07-23T12:40:58.854Z,24.47
2017-07-23T12:43:26.375Z,24.81
2017-07-23T12:45:53.823Z,24.79
2017-07-23T12:48:21.351Z,25.11
2017-07-23T12:50:48.909Z,25.31
2017-07-23T12:53:16.343Z,26.34
2017-07-23T12:55:44.373Z,28.59
2017-07-23T12:58:11.833Z,28.29
2017-07-23T13:00:39.417Z,28.32
2017-07-23T13:03:06.869Z,28.79
2017-07-23T13:05:34.327Z,28.71
2017-07-23T13:08:02.066Z,28.23
2017-07-23T13:10:29.516Z,27.57
2017-07-23T13:12:57.165Z,28.32
2017-07-23T13:15:24.675Z,30.08
2017-07-23T13:17:52.327Z,31.07
2017-07-23T13:20:19.878Z,30.32
2017-07-23T13:22:47.307Z,30.47
2017-07-23T13:25:14.765Z,31.42
2017-07-23T13:27:42.217Z,31.11
2017-07-23T13:30:09.615Z,31.81
2017-07-23T13:32:37.046Z,30.26
2017-07-23T13:35:04.446Z,28.95
2017-07-23T13:37:31.904Z,28.24
2017-07-23T13:39:59.320Z,28.41
2017-07-23T13:42:26.785Z,29.04
2017-07-23T13:44:54.241Z,29.59
2017-07-23T13:47:21.667Z,28.31
2017-07-23T13:49:49.151Z,29.21
2017-07-23T13:52:17.472Z,28.16
2017-07-23T13:54:44.927Z,28.19
2017-07-23T13:57:12.349Z,27.70
2017-07-23T13:59:39.894Z,27.53
2017-07-23T14:02:07.346Z,27.92
2017-07-23T14:04:34.839Z,27.94
2017-07-23T14:07:02.339Z,28.71
2017-07-23T14:09:29.817Z,28.47
2017-07-23T14:11:57.241Z,28.39
2017-07-23T14:14:24.695Z,27.85
2017-07-23T14:16:52.114Z,27.54
2017-07-23T14:19:19.559Z,27.61
2017-07-23T14:21:46.975Z,26.95
2017-07-23T14:24:14.567Z,27.06
2017-07-23T14:26:42.115Z,26.62
2017-07-23T14:29:09.535Z,26.49
2017-07-23T14:31:36.979Z,26.61
2017-07-23T14:34:05.285Z,26.78
2017-07-23T14:39:06.677Z,27.85
2017-07-23T14:41:34.111Z,28.69
2017-07-23T14:44:01.561Z,28.59
2017-07-23T14:46:28.993Z,28.11
2017-07-23T14:48:56.447Z,27.55
2017-07-23T14:51:23.866Z,26.80
2017-07-23T14:53:51.296Z,26.48
2017-07-23T14:56:18.740Z,26.48
2017-07-23T14:58:46.185Z,26.63
2017-07-23T15:01:13.651Z,26.28
2017-07-23T15:03:41.096Z,26.04
2017-07-23T15:06:08.529Z,25.56
2017-07-23T15:08:35.996Z,25.71
2017-07-23T15:11:03.401Z,25.72
2017-07-23T15:13:30.875Z,25.46
2017-07-23T15:15:58.346Z,25.46
2017-07-23T15:18:25.756Z,25.67
2017-07-23T15:20:53.228Z,25.64
2017-07-23T15:23:20.666Z,25.34
2017-07-23T15:25:48.098Z,25.32
2017-07-23T15:28:15.507Z,24.75
2017-07-23T15:30:43.025Z,24.73
2017-07-23T15:33:10.490Z,24.86
2017-07-23T15:35:37.946Z,24.87
2017-07-23T15:38:05.414Z,24.77
2017-07-23T15:40:32.864Z,24.70
2017-07-23T15:43:00.296Z,24.48
2017-07-23T15:45:27.718Z,24.49
2017-07-23T15:47:55.148Z,24.28
2017-07-23T15:50:22.573Z,24.72
2017-07-23T15:52:50.051Z,24.15
2017-07-23T15:55:17.469Z,24.60
2017-07-23T15:57:44.886Z,25.13
2017-07-23T16:00:12.311Z,25.10
2017-07-23T16:02:39.726Z,24.97
2017-07-23T16:05:07.225Z,24.98
2017-07-23T16:07:34.659Z,25.19
2017-07-23T16:10:02.075Z,25.18
2017-07-23T16:12:29.560Z,24.61
2017-07-23T16:14:56.972Z,24.51
2017-07-23T16:17:24.417Z,24.60
2017-07-23T16:19:51.906Z,24.56
2017-07-23T16:22:19.328Z,24.78
2017-07-23T16:24:46.766Z,24.56
2017-07-23T16:27:14.237Z,24.64
2017-07-23T16:29:41.683Z,24.35
2017-07-23T16:32:09.108Z,24.16
2017-07-23T16:34:36.521Z,23.97
2017-07-23T16:37:03.964Z,23.96
2017-07-23T16:39:31.399Z,24.06
2017-07-23T16:41:58.821Z,24.32
2017-07-23T16:44:26.295Z,24.44
2017-07-23T16:46:53.728Z,24.01
2017-07-23T16:49:21.169Z,24.14
2017-07-23T16:51:48.636Z,24.04
2017-07-23T16:54:16.122Z,24.26
2017-07-23T16:56:43.525Z,24.55
2017-07-23T16:59:10.980Z,24.60
2017-07-23T17:01:38.635Z,24.40
2017-07-23T17:04:06.098Z,24.27
2017-07-23T17:06:33.529Z,24.03
2017-07-23T17:09:00.981Z,24.05
2017-07-23T17:11:28.461Z,24.14
2017-07-23T17:13:55.924Z,23.88
2017-07-23T17:16:23.415Z,23.72
2017-07-23T17:18:50.887Z,23.76
2017-07-23T17:21:18.482Z,23.80
2017-07-23T17:23:45.971Z,23.62
2017-07-23T17:26:13.518Z,23.69
2017-07-23T17:28:41.010Z,23.73
2017-07-23T17:31:08.447Z,23.57
2017-07-23T17:33:35.962Z,23.58
2017-07-23T17:36:03.397Z,23.46
2017-07-23T17:38:30.916Z,23.39
2017-07-23T17:40:58.463Z,23.58
2017-07-23T17:43:25.910Z,23.60
2017-07-23T17:45:53.316Z,23.48
2017-07-23T17:48:20.797Z,23.39
2017-07-23T17:50:48.270Z,23.25
2017-07-23T17:53:15.717Z,23.31
2017-07-23T17:55:43.173Z,23.29
2017-07-23T17:58:10.676Z,23.36
2017-07-23T18:00:38.199Z,23.26
2017-07-23T18:03:05.620Z,23.24
2017-07-23T18:05:33.102Z,23.08
2017-07-23T18:08:00.619Z,22.95
2017-07-23T18:10:28.029Z,22.76
2017-07-23T18:12:55.639Z,22.95
2017-07-23T18:15:23.088Z,22.80
2017-07-23T18:17:50.570Z,22.96
2017-07-23T18:20:18.004Z,23.01
2017-07-23T18:22:45.471Z,22.67
2017-07-23T18:25:12.982Z,22.65
2017-07-23T18:27:40.507Z,22.64
2017-07-23T18:30:08.083Z,22.70
2017-07-23T18:32:35.498Z,22.69
2017-07-23T18:35:02.916Z,22.63
2017-07-23T18:37:30.396Z,22.43
2017-07-23T18:39:57.843Z,22.48
2017-07-23T18:42:25.376Z,22.64
2017-07-23T18:44:52.901Z,22.68
2017-07-23T18:47:20.418Z,22.48
2017-07-23T18:49:47.879Z,22.04
2017-07-23T18:52:15.457Z,21.97
2017-07-23T18:54:42.936Z,21.94
2017-07-23T18:57:10.450Z,22.13
2017-07-23T18:59:37.989Z,21.95
2017-07-23T19:02:06.349Z,21.94
2017-07-23T19:04:33.791Z,21.88
2017-07-23T19:07:01.290Z,21.85
2017-07-23T19:09:28.696Z,21.95
2017-07-23T19:11:56.188Z,21.99
2017-07-23T19:14:23.692Z,22.00
2017-07-23T19:16:51.214Z,22.05
2017-07-23T19:19:18.630Z,22.07
2017-07-23T19:21:46.232Z,22.04
2017-07-23T19:24:13.680Z,21.94
2017-07-23T19:26:41.093Z,22.07
2017-07-23T19:29:08.535Z,22.01
2017-07-23T19:31:35.964Z,22.00
2017-07-23T19:34:03.489Z,21.97
2017-07-23T19:36:30.916Z,21.93
2017-07-23T19:38:58.396Z,21.89
2017-07-23T19:41:25.834Z,21.77
2017-07-23T19:43:53.294Z,21.63
2017-07-23T19:46:20.726Z,21.65
2017-07-23T19:48:48.144Z,21.66
2017-07-23T19:51:15.661Z,21.67
2017-07-23T19:53:43.310Z,21.52
2017-07-23T19:56:10.842Z,21.49
2017-07-23T19:58:38.436Z,21.54
2017-07-23T20:01:05.841Z,21.52
2017-07-23T20:03:33.350Z,21.35
2017-07-23T20:06:01.809Z,21.25
2017-07-23T20:08:29.241Z,21.31
2017-07-23T20:10:56.686Z,21.10
2017-07-23T20:13:24.094Z,21.12
2017-07-23T20:15:51.551Z,21.09
2017-07-23T20:18:18.972Z,21.01
2017-07-23T20:20:46.453Z,20.94
2017-07-23T20:23:14.042Z,20.79
2017-07-23T20:25:41.493Z,20.81
2017-07-23T20:28:08.912Z,20.78
2017-07-23T20:30:36.366Z,20.70
2017-07-23T20:33:03.816Z,20.62
2017-07-23T20:35:31.285Z,20.54
2017-07-23T20:37:58.696Z,20.45
2017-07-23T20:40:26.161Z,20.51
2017-07-23T20:42:53.595Z,20.46
2017-07-23T20:45:21.000Z,20.37
2017-07-23T20:47:48.469Z,20.25
2017-07-23T20:50:15.907Z,20.16
2017-07-23T20:52:43.337Z,19.93
2017-07-23T20:55:10.852Z,19.91
2017-07-23T20:57:38.347Z,19.88
2017-07-23T21:00:05.906Z,20.00
2017-07-23T21:02:33.318Z,20.01
2017-07-23T21:05:00.813Z,20.10
2017-07-23T21:07:28.238Z,20.17
2017-07-23T21:09:55.645Z,20.15
2017-07-23T21:12:23.136Z,20.15
2017-07-23T21:14:50.595Z,20.08
2017-07-23T21:17:18.097Z,20.04
2017-07-23T21:19:45.528Z,20.06
2017-07-23T21:22:12.980Z,19.96
2017-07-23T21:24:40.398Z,19.99
2017-07-23T21:27:07.819Z,19.86
2017-07-23T21:29:35.283Z,19.82
2017-07-23T21:32:02.676Z,19.71
2017-07-23T21:34:30.299Z,19.66
2017-07-23T21:36:57.846Z,19.78
2017-07-23T21:39:25.291Z,19.80
2017-07-23T21:41:52.697Z,19.70
2017-07-23T21:44:20.185Z,19.42
2017-07-23T21:46:47.615Z,19.33
2017-07-23T21:49:15.046Z,19.21
2017-07-23T21:51:42.486Z,19.16
2017-07-23T21:54:09.988Z,19.15
2017-07-23T21:56:37.560Z,19.24
2017-07-23T21:59:04.982Z,19.26
2017-07-23T22:01:32.387Z,19.12
2017-07-23T22:03:59.841Z,19.10
2017-07-23T22:06:27.285Z,19.13
2017-07-23T22:08:54.720Z,19.24
2017-07-23T22:11:22.136Z,19.28
2017-07-23T22:13:49.731Z,19.44
2017-07-23T22:16:17.124Z,19.56
2017-07-23T22:18:44.525Z,19.41
2017-07-23T22:21:11.989Z,19.42
2017-07-23T22:23:39.397Z,19.46
2017-07-23T22:26:06.835Z,19.51
2017-07-23T22:28:34.259Z,19.60
2017-07-23T22:31:01.677Z,19.58
2017-07-23T22:33:29.145Z,19.52
2017-07-23T22:35:56.557Z,19.48
2017-07-23T22:38:23.992Z,19.51
2017-07-23T22:40:51.404Z,19.55
2017-07-23T22:43:18.840Z,19.50
2017-07-23T22:45:46.363Z,19.43
2017-07-23T22:48:13.832Z,19.19
2017-07-23T22:50:42.282Z,19.03
2017-07-23T22:53:09.704Z,19.06
2017-07-23T22:55:37.283Z,19.01
2017-07-23T22:58:04.715Z,18.97
2017-07-23T23:00:32.124Z,18.91
2017-07-23T23:02:59.562Z,18.75
2017-07-23T23:05:27.029Z,18.76
2017-07-23T23:07:54.472Z,18.76
2017-07-23T23:10:21.903Z,18.78
2017-07-23T23:12:49.348Z,18.78
2017-07-23T23:15:16.768Z,18.88
2017-07-23T23:17:44.182Z,18.88
2017-07-23T23:20:11.623Z,18.82
2017-07-23T23:22:39.028Z,18.81
2017-07-23T23:25:06.436Z,18.75
2017-07-23T23:27:33.862Z,18.66
2017-07-23T23:30:01.280Z,18.61
2017-07-23T23:32:28.772Z,18.56
2017-07-23T23:34:56.195Z,18.47
2017-07-23T23:37:23.599Z,18.49
2017-07-23T23:39:51.032Z,18.49
2017-07-23T23:42:18.464Z,18.46
2017-07-23T23:44:45.903Z,18.54
2017-07-23T23:47:13.335Z,18.59
2017-07-23T23:49:40.764Z,18.56
2017-07-23T23:52:08.192Z,18.49
2017-07-23T23:54:35.583Z,18.53
2017-07-23T23:57:03.034Z,18.52
2017-07-23T23:59:30.461Z,18.55
